sensor_id;sensor_type;location;lat;lon;timestamp;P1;durP1;ratioP1;P2;durP2;ratioP2
54679;SDS011;40578;53.178;5.846;2023-01-19T00:02:25;8.30;;;1.00;;
54679;SDS011;40578;53.178;5.846;2023-01-19T00:04:51;11.47;;;1.00;;
54679;SDS011;40578;53.178;5.846;2023-01-19T00:07:16;9.07;;;1.60;;
54679;SDS011;40578;53.178;5.846;2023-01-19T00:09:42;7.00;;;1.23;;
54679;SDS011;40578;53.178;5.846;2023-01-19T00:12:08;7.67;;;0.90;;
54679;SDS011;40578;53.178;5.846;2023-01-19T00:14:34;9.23;;;1.33;;
54679;SDS011;40578;53.178;5.846;2023-01-19T00:16:59;6.93;;;1.10;;
54679;SDS011;40578;53.178;5.846;2023-01-19T00:19:28;7.93;;;1.10;;
54679;SDS011;40578;53.178;5.846;2023-01-19T00:21:54;10.50;;;0.90;;
54679;SDS011;40578;53.178;5.846;2023-01-19T00:24:20;7.40;;;1.07;;
54679;SDS011;40578;53.178;5.846;2023-01-19T00:26:46;6.77;;;0.90;;
54679;SDS011;40578;53.178;5.846;2023-01-19T00:29:11;5.43;;;1.48;;
54679;SDS011;40578;53.178;5.846;2023-01-19T00:31:38;10.77;;;1.27;;
54679;SDS011;40578;53.178;5.846;2023-01-19T00:34:04;6.03;;;1.13;;
54679;SDS011;40578;53.178;5.846;2023-01-19T00:36:30;8.15;;;1.50;;
54679;SDS011;40578;53.178;5.846;2023-01-19T00:38:56;7.75;;;0.98;;
54679;SDS011;40578;53.178;5.846;2023-01-19T00:41:22;9.50;;;0.93;;
54679;SDS011;40578;53.178;5.846;2023-01-19T00:44:08;7.47;;;0.90;;
54679;SDS011;40578;53.178;5.846;2023-01-19T00:46:34;6.68;;;1.20;;
54679;SDS011;40578;53.178;5.846;2023-01-19T00:49:00;6.50;;;0.93;;
54679;SDS011;40578;53.178;5.846;2023-01-19T00:51:25;5.73;;;0.90;;
54679;SDS011;40578;53.178;5.846;2023-01-19T00:53:51;7.20;;;1.07;;
54679;SDS011;40578;53.178;5.846;2023-01-19T00:56:16;11.37;;;1.20;;
54679;SDS011;40578;53.178;5.846;2023-01-19T00:58:42;7.43;;;1.20;;
54679;SDS011;40578;53.178;5.846;2023-01-19T01:01:10;6.95;;;1.25;;
54679;SDS011;40578;53.178;5.846;2023-01-19T01:03:36;12.35;;;1.17;;
54679;SDS011;40578;53.178;5.846;2023-01-19T01:06:01;14.70;;;1.70;;
54679;SDS011;40578;53.178;5.846;2023-01-19T01:08:28;9.82;;;1.08;;
54679;SDS011;40578;53.178;5.846;2023-01-19T01:10:54;12.90;;;1.20;;
54679;SDS011;40578;53.178;5.846;2023-01-19T01:13:20;8.60;;;1.20;;
54679;SDS011;40578;53.178;5.846;2023-01-19T01:15:52;9.57;;;1.13;;
54679;SDS011;40578;53.178;5.846;2023-01-19T01:18:19;5.93;;;0.70;;
54679;SDS011;40578;53.178;5.846;2023-01-19T01:20:45;10.63;;;0.88;;
54679;SDS011;40578;53.178;5.846;2023-01-19T01:23:11;4.83;;;0.70;;
54679;SDS011;40578;53.178;5.846;2023-01-19T01:25:37;7.13;;;0.90;;
54679;SDS011;40578;53.178;5.846;2023-01-19T01:28:03;3.70;;;0.80;;
54679;SDS011;40578;53.178;5.846;2023-01-19T01:30:33;8.50;;;0.95;;
54679;SDS011;40578;53.178;5.846;2023-01-19T01:33:03;8.27;;;1.13;;
54679;SDS011;40578;53.178;5.846;2023-01-19T01:35:29;5.47;;;0.70;;
54679;SDS011;40578;53.178;5.846;2023-01-19T01:40:22;5.47;;;1.20;;
54679;SDS011;40578;53.178;5.846;2023-01-19T01:42:48;14.67;;;1.20;;
54679;SDS011;40578;53.178;5.846;2023-01-19T01:45:31;5.43;;;0.83;;
54679;SDS011;40578;53.178;5.846;2023-01-19T01:53:54;8.43;;;1.45;;
54679;SDS011;40578;53.178;5.846;2023-01-19T01:56:36;6.90;;;1.20;;
54679;SDS011;40578;53.178;5.846;2023-01-19T01:59:12;3.80;;;0.70;;
54679;SDS011;40578;53.178;5.846;2023-01-19T02:01:49;6.47;;;1.05;;
54679;SDS011;40578;53.178;5.846;2023-01-19T02:04:35;6.25;;;0.98;;
54679;SDS011;40578;53.178;5.846;2023-01-19T02:07:02;5.88;;;1.08;;
54679;SDS011;40578;53.178;5.846;2023-01-19T02:09:46;9.43;;;1.23;;
54679;SDS011;40578;53.178;5.846;2023-01-19T02:12:31;3.88;;;0.80;;
54679;SDS011;40578;53.178;5.846;2023-01-19T02:15:17;11.55;;;1.30;;
54679;SDS011;40578;53.178;5.846;2023-01-19T02:17:44;5.00;;;0.63;;
54679;SDS011;40578;53.178;5.846;2023-01-19T02:20:10;7.47;;;0.90;;
54679;SDS011;40578;53.178;5.846;2023-01-19T02:22:47;7.03;;;0.77;;
54679;SDS011;40578;53.178;5.846;2023-01-19T02:25:15;7.90;;;0.75;;
54679;SDS011;40578;53.178;5.846;2023-01-19T02:27:43;6.35;;;0.90;;
54679;SDS011;40578;53.178;5.846;2023-01-19T02:30:09;5.50;;;0.80;;
54679;SDS011;40578;53.178;5.846;2023-01-19T02:32:36;8.25;;;1.08;;
54679;SDS011;40578;53.178;5.846;2023-01-19T02:35:02;6.00;;;0.90;;
54679;SDS011;40578;53.178;5.846;2023-01-19T02:37:28;7.38;;;1.17;;
54679;SDS011;40578;53.178;5.846;2023-01-19T02:39:59;7.97;;;1.30;;
54679;SDS011;40578;53.178;5.846;2023-01-19T02:42:26;7.80;;;1.23;;
54679;SDS011;40578;53.178;5.846;2023-01-19T02:44:58;9.40;;;1.80;;
54679;SDS011;40578;53.178;5.846;2023-01-19T02:47:24;4.90;;;1.03;;
54679;SDS011;40578;53.178;5.846;2023-01-19T02:49:56;7.80;;;0.90;;
54679;SDS011;40578;53.178;5.846;2023-01-19T02:52:22;4.03;;;0.95;;
54679;SDS011;40578;53.178;5.846;2023-01-19T03:00:09;6.07;;;0.85;;
54679;SDS011;40578;53.178;5.846;2023-01-19T03:02:52;7.40;;;0.90;;
54679;SDS011;40578;53.178;5.846;2023-01-19T03:05:47;8.20;;;0.70;;
54679;SDS011;40578;53.178;5.846;2023-01-19T03:11:13;7.45;;;1.30;;
54679;SDS011;40578;53.178;5.846;2023-01-19T03:16:15;8.07;;;0.90;;
54679;SDS011;40578;53.178;5.846;2023-01-19T03:18:57;6.15;;;1.50;;
54679;SDS011;40578;53.178;5.846;2023-01-19T03:21:28;4.82;;;1.17;;
54679;SDS011;40578;53.178;5.846;2023-01-19T03:23:56;8.00;;;0.75;;
54679;SDS011;40578;53.178;5.846;2023-01-19T03:26:26;9.18;;;1.42;;
54679;SDS011;40578;53.178;5.846;2023-01-19T03:28:54;11.43;;;1.17;;
54679;SDS011;40578;53.178;5.846;2023-01-19T03:31:23;9.98;;;1.90;;
54679;SDS011;40578;53.178;5.846;2023-01-19T03:33:55;11.57;;;1.35;;
54679;SDS011;40578;53.178;5.846;2023-01-19T03:36:26;9.70;;;1.33;;
54679;SDS011;40578;53.178;5.846;2023-01-19T03:38:56;13.30;;;1.05;;
54679;SDS011;40578;53.178;5.846;2023-01-19T03:41:24;7.15;;;1.00;;
54679;SDS011;40578;53.178;5.846;2023-01-19T03:43:51;6.35;;;1.17;;
54679;SDS011;40578;53.178;5.846;2023-01-19T03:46:19;10.27;;;1.80;;
54679;SDS011;40578;53.178;5.846;2023-01-19T03:48:46;11.55;;;1.10;;
54679;SDS011;40578;53.178;5.846;2023-01-19T03:51:13;14.15;;;1.67;;
54679;SDS011;40578;53.178;5.846;2023-01-19T03:53:40;9.80;;;2.03;;
54679;SDS011;40578;53.178;5.846;2023-01-19T03:56:09;8.88;;;1.40;;
54679;SDS011;40578;53.178;5.846;2023-01-19T03:58:43;14.88;;;1.50;;
54679;SDS011;40578;53.178;5.846;2023-01-19T04:01:10;9.52;;;1.83;;
54679;SDS011;40578;53.178;5.846;2023-01-19T04:03:35;13.63;;;1.50;;
54679;SDS011;40578;53.178;5.846;2023-01-19T04:06:01;8.10;;;1.57;;
54679;SDS011;40578;53.178;5.846;2023-01-19T04:08:27;12.33;;;1.53;;
54679;SDS011;40578;53.178;5.846;2023-01-19T04:10:52;14.60;;;1.30;;
54679;SDS011;40578;53.178;5.846;2023-01-19T04:13:18;14.20;;;1.40;;
54679;SDS011;40578;53.178;5.846;2023-01-19T04:15:44;10.63;;;1.23;;
54679;SDS011;40578;53.178;5.846;2023-01-19T04:18:09;10.97;;;2.33;;
54679;SDS011;40578;53.178;5.846;2023-01-19T04:20:35;10.68;;;2.08;;
54679;SDS011;40578;53.178;5.846;2023-01-19T04:23:01;5.87;;;1.10;;
54679;SDS011;40578;53.178;5.846;2023-01-19T04:25:27;9.30;;;1.07;;
54679;SDS011;40578;53.178;5.846;2023-01-19T04:27:52;11.33;;;1.30;;
54679;SDS011;40578;53.178;5.846;2023-01-19T04:30:19;7.25;;;1.00;;
54679;SDS011;40578;53.178;5.846;2023-01-19T04:32:44;7.07;;;0.83;;
54679;SDS011;40578;53.178;5.846;2023-01-19T04:35:10;3.87;;;0.83;;
54679;SDS011;40578;53.178;5.846;2023-01-19T04:37:36;7.07;;;1.07;;
54679;SDS011;40578;53.178;5.846;2023-01-19T04:40:02;6.23;;;1.37;;
54679;SDS011;40578;53.178;5.846;2023-01-19T04:42:28;7.25;;;1.08;;
54679;SDS011;40578;53.178;5.846;2023-01-19T04:44:53;3.73;;;1.10;;
54679;SDS011;40578;53.178;5.846;2023-01-19T04:47:19;7.10;;;1.03;;
54679;SDS011;40578;53.178;5.846;2023-01-19T04:49:44;6.27;;;0.87;;
54679;SDS011;40578;53.178;5.846;2023-01-19T04:52:10;5.97;;;1.17;;
54679;SDS011;40578;53.178;5.846;2023-01-19T04:54:36;6.67;;;0.90;;
54679;SDS011;40578;53.178;5.846;2023-01-19T04:57:01;5.63;;;0.97;;
54679;SDS011;40578;53.178;5.846;2023-01-19T04:59:27;7.63;;;1.17;;
54679;SDS011;40578;53.178;5.846;2023-01-19T05:01:53;8.60;;;1.20;;
54679;SDS011;40578;53.178;5.846;2023-01-19T05:06:46;12.10;;;1.30;;
54679;SDS011;40578;53.178;5.846;2023-01-19T05:09:12;6.93;;;1.13;;
54679;SDS011;40578;53.178;5.846;2023-01-19T05:11:39;5.82;;;1.00;;
54679;SDS011;40578;53.178;5.846;2023-01-19T05:14:05;12.48;;;1.20;;
54679;SDS011;40578;53.178;5.846;2023-01-19T05:16:31;5.23;;;1.10;;
54679;SDS011;40578;53.178;5.846;2023-01-19T05:18:57;6.75;;;1.10;;
54679;SDS011;40578;53.178;5.846;2023-01-19T05:21:22;4.97;;;1.20;;
54679;SDS011;40578;53.178;5.846;2023-01-19T05:23:48;10.00;;;1.37;;
54679;SDS011;40578;53.178;5.846;2023-01-19T05:26:13;7.73;;;0.97;;
54679;SDS011;40578;53.178;5.846;2023-01-19T05:28:39;7.40;;;1.50;;
54679;SDS011;40578;53.178;5.846;2023-01-19T05:31:05;10.30;;;1.10;;
54679;SDS011;40578;53.178;5.846;2023-01-19T05:33:30;9.60;;;1.10;;
54679;SDS011;40578;53.178;5.846;2023-01-19T05:35:56;7.63;;;1.10;;
54679;SDS011;40578;53.178;5.846;2023-01-19T05:38:21;9.63;;;1.47;;
54679;SDS011;40578;53.178;5.846;2023-01-19T05:40:47;11.27;;;1.60;;
54679;SDS011;40578;53.178;5.846;2023-01-19T05:43:13;14.67;;;1.77;;
54679;SDS011;40578;53.178;5.846;2023-01-19T05:45:39;14.95;;;1.65;;
54679;SDS011;40578;53.178;5.846;2023-01-19T05:48:06;13.40;;;2.03;;
54679;SDS011;40578;53.178;5.846;2023-01-19T05:50:32;7.80;;;1.40;;
54679;SDS011;40578;53.178;5.846;2023-01-19T05:52:58;8.77;;;1.52;;
54679;SDS011;40578;53.178;5.846;2023-01-19T05:55:25;10.18;;;2.00;;
54679;SDS011;40578;53.178;5.846;2023-01-19T05:57:50;13.57;;;1.25;;
54679;SDS011;40578;53.178;5.846;2023-01-19T06:00:16;11.73;;;1.60;;
54679;SDS011;40578;53.178;5.846;2023-01-19T06:02:42;11.93;;;1.67;;
54679;SDS011;40578;53.178;5.846;2023-01-19T06:05:08;8.38;;;1.27;;
54679;SDS011;40578;53.178;5.846;2023-01-19T06:07:34;10.82;;;1.63;;
54679;SDS011;40578;53.178;5.846;2023-01-19T06:10:00;15.07;;;1.93;;
54679;SDS011;40578;53.178;5.846;2023-01-19T06:12:25;13.17;;;2.03;;
54679;SDS011;40578;53.178;5.846;2023-01-19T06:14:51;12.87;;;1.63;;
54679;SDS011;40578;53.178;5.846;2023-01-19T06:17:17;10.10;;;1.50;;
54679;SDS011;40578;53.178;5.846;2023-01-19T06:19:43;10.00;;;1.52;;
54679;SDS011;40578;53.178;5.846;2023-01-19T06:22:08;13.20;;;1.40;;
54679;SDS011;40578;53.178;5.846;2023-01-19T06:24:34;11.17;;;2.23;;
54679;SDS011;40578;53.178;5.846;2023-01-19T06:26:59;12.40;;;1.50;;
54679;SDS011;40578;53.178;5.846;2023-01-19T06:29:26;7.97;;;1.33;;
54679;SDS011;40578;53.178;5.846;2023-01-19T06:31:51;12.98;;;2.33;;
54679;SDS011;40578;53.178;5.846;2023-01-19T06:34:17;10.03;;;1.87;;
54679;SDS011;40578;53.178;5.846;2023-01-19T06:36:44;10.82;;;2.05;;
54679;SDS011;40578;53.178;5.846;2023-01-19T06:39:10;13.30;;;2.05;;
54679;SDS011;40578;53.178;5.846;2023-01-19T06:41:36;10.70;;;1.77;;
54679;SDS011;40578;53.178;5.846;2023-01-19T06:44:02;15.38;;;2.30;;
54679;SDS011;40578;53.178;5.846;2023-01-19T06:46:28;12.00;;;2.30;;
54679;SDS011;40578;53.178;5.846;2023-01-19T06:48:54;12.07;;;2.27;;
54679;SDS011;40578;53.178;5.846;2023-01-19T06:51:20;16.63;;;2.23;;
54679;SDS011;40578;53.178;5.846;2023-01-19T06:53:46;13.45;;;1.67;;
54679;SDS011;40578;53.178;5.846;2023-01-19T06:56:12;10.23;;;1.80;;
54679;SDS011;40578;53.178;5.846;2023-01-19T06:58:37;11.20;;;1.77;;
54679;SDS011;40578;53.178;5.846;2023-01-19T07:01:04;10.27;;;2.20;;
54679;SDS011;40578;53.178;5.846;2023-01-19T07:03:31;15.13;;;2.25;;
54679;SDS011;40578;53.178;5.846;2023-01-19T07:05:57;16.40;;;2.42;;
54679;SDS011;40578;53.178;5.846;2023-01-19T07:08:26;9.52;;;2.30;;
54679;SDS011;40578;53.178;5.846;2023-01-19T07:10:57;12.43;;;2.50;;
54679;SDS011;40578;53.178;5.846;2023-01-19T07:13:34;12.73;;;2.63;;
54679;SDS011;40578;53.178;5.846;2023-01-19T07:16:04;14.73;;;2.40;;
54679;SDS011;40578;53.178;5.846;2023-01-19T07:18:30;10.15;;;1.77;;
54679;SDS011;40578;53.178;5.846;2023-01-19T07:20:56;12.57;;;2.60;;
54679;SDS011;40578;53.178;5.846;2023-01-19T07:23:22;13.60;;;1.70;;
54679;SDS011;40578;53.178;5.846;2023-01-19T07:25:48;11.97;;;1.87;;
54679;SDS011;40578;53.178;5.846;2023-01-19T07:28:13;14.53;;;1.80;;
54679;SDS011;40578;53.178;5.846;2023-01-19T07:33:07;13.27;;;2.40;;
54679;SDS011;40578;53.178;5.846;2023-01-19T07:35:32;16.73;;;2.30;;
54679;SDS011;40578;53.178;5.846;2023-01-19T07:37:58;12.63;;;2.93;;
54679;SDS011;40578;53.178;5.846;2023-01-19T07:40:23;13.03;;;2.20;;
54679;SDS011;40578;53.178;5.846;2023-01-19T07:42:49;20.07;;;3.13;;
54679;SDS011;40578;53.178;5.846;2023-01-19T07:45:16;17.95;;;2.45;;
54679;SDS011;40578;53.178;5.846;2023-01-19T07:47:44;23.13;;;2.47;;
54679;SDS011;40578;53.178;5.846;2023-01-19T07:50:13;13.32;;;2.72;;
54679;SDS011;40578;53.178;5.846;2023-01-19T07:52:40;16.35;;;2.85;;
54679;SDS011;40578;53.178;5.846;2023-01-19T07:55:06;15.93;;;2.70;;
54679;SDS011;40578;53.178;5.846;2023-01-19T07:57:33;18.60;;;3.17;;
54679;SDS011;40578;53.178;5.846;2023-01-19T07:59:59;16.40;;;2.30;;
54679;SDS011;40578;53.178;5.846;2023-01-19T08:02:25;19.70;;;2.97;;
54679;SDS011;40578;53.178;5.846;2023-01-19T08:04:50;12.10;;;2.30;;
54679;SDS011;40578;53.178;5.846;2023-01-19T08:07:16;17.07;;;3.33;;
54679;SDS011;40578;53.178;5.846;2023-01-19T08:09:42;13.02;;;2.40;;
54679;SDS011;40578;53.178;5.846;2023-01-19T08:12:07;15.47;;;2.30;;
54679;SDS011;40578;53.178;5.846;2023-01-19T08:14:33;16.77;;;2.43;;
54679;SDS011;40578;53.178;5.846;2023-01-19T08:16:59;18.37;;;3.00;;
54679;SDS011;40578;53.178;5.846;2023-01-19T08:19:25;19.13;;;2.15;;
54679;SDS011;40578;53.178;5.846;2023-01-19T08:21:51;11.90;;;1.93;;
54679;SDS011;40578;53.178;5.846;2023-01-19T08:24:17;13.00;;;1.70;;
54679;SDS011;40578;53.178;5.846;2023-01-19T08:26:45;13.68;;;2.60;;
54679;SDS011;40578;53.178;5.846;2023-01-19T08:29:11;14.55;;;2.40;;
54679;SDS011;40578;53.178;5.846;2023-01-19T08:31:37;17.50;;;2.53;;
54679;SDS011;40578;53.178;5.846;2023-01-19T08:34:03;19.38;;;2.85;;
54679;SDS011;40578;53.178;5.846;2023-01-19T08:36:29;18.08;;;2.38;;
54679;SDS011;40578;53.178;5.846;2023-01-19T08:38:55;18.83;;;2.03;;
54679;SDS011;40578;53.178;5.846;2023-01-19T08:41:21;10.23;;;2.00;;
54679;SDS011;40578;53.178;5.846;2023-01-19T08:43:47;14.43;;;1.90;;
54679;SDS011;40578;53.178;5.846;2023-01-19T08:46:13;17.55;;;2.40;;
54679;SDS011;40578;53.178;5.846;2023-01-19T08:48:41;11.52;;;1.92;;
54679;SDS011;40578;53.178;5.846;2023-01-19T08:51:09;10.70;;;2.08;;
54679;SDS011;40578;53.178;5.846;2023-01-19T08:53:36;9.55;;;2.08;;
54679;SDS011;40578;53.178;5.846;2023-01-19T08:56:02;9.52;;;2.17;;
54679;SDS011;40578;53.178;5.846;2023-01-19T08:58:28;13.63;;;2.33;;
54679;SDS011;40578;53.178;5.846;2023-01-19T09:00:53;7.20;;;1.30;;
54679;SDS011;40578;53.178;5.846;2023-01-19T09:03:20;13.73;;;2.20;;
54679;SDS011;40578;53.178;5.846;2023-01-19T09:05:46;8.02;;;1.55;;
54679;SDS011;40578;53.178;5.846;2023-01-19T09:08:13;9.48;;;1.77;;
54679;SDS011;40578;53.178;5.846;2023-01-19T09:10:49;11.70;;;1.65;;
54679;SDS011;40578;53.178;5.846;2023-01-19T09:13:15;10.85;;;2.10;;
54679;SDS011;40578;53.178;5.846;2023-01-19T09:15:42;14.65;;;1.83;;
54679;SDS011;40578;53.178;5.846;2023-01-19T09:18:09;18.83;;;2.55;;
54679;SDS011;40578;53.178;5.846;2023-01-19T09:20:40;14.48;;;2.10;;
54679;SDS011;40578;53.178;5.846;2023-01-19T09:23:13;12.63;;;2.17;;
54679;SDS011;40578;53.178;5.846;2023-01-19T09:25:42;10.25;;;2.80;;
54679;SDS011;40578;53.178;5.846;2023-01-19T09:28:10;16.48;;;3.90;;
54679;SDS011;40578;53.178;5.846;2023-01-19T09:30:37;19.58;;;4.10;;
54679;SDS011;40578;53.178;5.846;2023-01-19T09:33:05;12.73;;;3.08;;
54679;SDS011;40578;53.178;5.846;2023-01-19T09:35:34;13.25;;;3.15;;
54679;SDS011;40578;53.178;5.846;2023-01-19T09:38:04;14.57;;;2.58;;
54679;SDS011;40578;53.178;5.846;2023-01-19T09:40:31;14.95;;;2.95;;
54679;SDS011;40578;53.178;5.846;2023-01-19T09:50:46;10.60;;;2.10;;
54679;SDS011;40578;53.178;5.846;2023-01-19T09:53:15;11.10;;;1.83;;
54679;SDS011;40578;53.178;5.846;2023-01-19T09:55:45;8.23;;;1.92;;
54679;SDS011;40578;53.178;5.846;2023-01-19T09:58:12;13.37;;;2.17;;
54679;SDS011;40578;53.178;5.846;2023-01-19T10:00:42;17.33;;;2.45;;
54679;SDS011;40578;53.178;5.846;2023-01-19T10:03:14;9.10;;;1.83;;
54679;SDS011;40578;53.178;5.846;2023-01-19T10:10:46;11.23;;;1.60;;
54679;SDS011;40578;53.178;5.846;2023-01-19T10:13:20;11.65;;;1.77;;
54679;SDS011;40578;53.178;5.846;2023-01-19T10:18:47;10.15;;;1.40;;
54679;SDS011;40578;53.178;5.846;2023-01-19T10:23:53;10.85;;;1.95;;
54679;SDS011;40578;53.178;5.846;2023-01-19T10:26:50;9.30;;;1.55;;
54679;SDS011;40578;53.178;5.846;2023-01-19T10:31:46;8.32;;;1.48;;
54679;SDS011;40578;53.178;5.846;2023-01-19T10:34:15;10.13;;;1.60;;
54679;SDS011;40578;53.178;5.846;2023-01-19T10:36:47;8.15;;;1.63;;
54679;SDS011;40578;53.178;5.846;2023-01-19T10:39:17;7.75;;;1.90;;
54679;SDS011;40578;53.178;5.846;2023-01-19T10:41:45;7.07;;;1.70;;
54679;SDS011;40578;53.178;5.846;2023-01-19T10:44:21;12.23;;;2.20;;
54679;SDS011;40578;53.178;5.846;2023-01-19T10:46:48;10.77;;;1.15;;
54679;SDS011;40578;53.178;5.846;2023-01-19T10:49:28;9.45;;;1.40;;
54679;SDS011;40578;53.178;5.846;2023-01-19T10:51:59;7.95;;;1.10;;
54679;SDS011;40578;53.178;5.846;2023-01-19T10:54:27;7.18;;;1.23;;
54679;SDS011;40578;53.178;5.846;2023-01-19T10:57:00;6.55;;;1.20;;
54679;SDS011;40578;53.178;5.846;2023-01-19T10:59:32;11.15;;;1.10;;
54679;SDS011;40578;53.178;5.846;2023-01-19T11:02:15;8.02;;;1.15;;
54679;SDS011;40578;53.178;5.846;2023-01-19T11:04:44;8.13;;;1.10;;
54679;SDS011;40578;53.178;5.846;2023-01-19T11:17:44;8.45;;;1.52;;
54679;SDS011;40578;53.178;5.846;2023-01-19T11:22:46;7.70;;;1.45;;
54679;SDS011;40578;53.178;5.846;2023-01-19T11:25:19;8.50;;;1.20;;
54679;SDS011;40578;53.178;5.846;2023-01-19T11:30:19;6.35;;;1.20;;
54679;SDS011;40578;53.178;5.846;2023-01-19T11:32:48;4.75;;;1.05;;
54679;SDS011;40578;53.178;5.846;2023-01-19T11:40:36;4.75;;;0.90;;
54679;SDS011;40578;53.178;5.846;2023-01-19T11:43:03;7.13;;;1.10;;
54679;SDS011;40578;53.178;5.846;2023-01-19T11:45:29;3.88;;;0.73;;
54679;SDS011;40578;53.178;5.846;2023-01-19T11:47:57;6.13;;;1.17;;
54679;SDS011;40578;53.178;5.846;2023-01-19T11:50:33;6.80;;;1.20;;
54679;SDS011;40578;53.178;5.846;2023-01-19T11:53:10;8.15;;;1.45;;
54679;SDS011;40578;53.178;5.846;2023-01-19T11:55:57;6.57;;;1.30;;
54679;SDS011;40578;53.178;5.846;2023-01-19T11:58:28;6.20;;;1.63;;
54679;SDS011;40578;53.178;5.846;2023-01-19T12:00:56;4.45;;;1.33;;
54679;SDS011;40578;53.178;5.846;2023-01-19T12:03:38;7.18;;;1.38;;
54679;SDS011;40578;53.178;5.846;2023-01-19T12:06:11;4.63;;;1.35;;
54679;SDS011;40578;53.178;5.846;2023-01-19T12:08:43;8.70;;;1.30;;
54679;SDS011;40578;53.178;5.846;2023-01-19T12:11:18;9.23;;;1.50;;
54679;SDS011;40578;53.178;5.846;2023-01-19T12:13:47;7.00;;;1.10;;
54679;SDS011;40578;53.178;5.846;2023-01-19T12:16:18;8.30;;;1.40;;
54679;SDS011;40578;53.178;5.846;2023-01-19T12:18:50;7.53;;;1.08;;
54679;SDS011;40578;53.178;5.846;2023-01-19T12:21:17;9.00;;;1.42;;
54679;SDS011;40578;53.178;5.846;2023-01-19T12:26:25;4.40;;;1.00;;
54679;SDS011;40578;53.178;5.846;2023-01-19T12:29:10;10.90;;;1.50;;
54679;SDS011;40578;53.178;5.846;2023-01-19T12:31:38;6.13;;;1.15;;
54679;SDS011;40578;53.178;5.846;2023-01-19T12:36:59;5.63;;;1.45;;
54679;SDS011;40578;53.178;5.846;2023-01-19T12:39:27;8.35;;;1.17;;
54679;SDS011;40578;53.178;5.846;2023-01-19T12:44:41;5.10;;;1.20;;
54679;SDS011;40578;53.178;5.846;2023-01-19T12:54:49;5.88;;;1.08;;
54679;SDS011;40578;53.178;5.846;2023-01-19T12:59:54;6.72;;;1.10;;
54679;SDS011;40578;53.178;5.846;2023-01-19T13:13:19;6.72;;;1.13;;
54679;SDS011;40578;53.178;5.846;2023-01-19T13:15:48;6.93;;;1.30;;
54679;SDS011;40578;53.178;5.846;2023-01-19T13:18:25;5.22;;;0.90;;
54679;SDS011;40578;53.178;5.846;2023-01-19T13:26:24;8.15;;;1.30;;
54679;SDS011;40578;53.178;5.846;2023-01-19T13:28:57;4.57;;;1.63;;
54679;SDS011;40578;53.178;5.846;2023-01-19T13:31:35;6.53;;;1.27;;
54679;SDS011;40578;53.178;5.846;2023-01-19T13:34:03;6.38;;;1.20;;
54679;SDS011;40578;53.178;5.846;2023-01-19T13:36:36;8.07;;;1.38;;
54679;SDS011;40578;53.178;5.846;2023-01-19T13:39:10;7.40;;;0.82;;
54679;SDS011;40578;53.178;5.846;2023-01-19T13:41:40;4.65;;;1.00;;
54679;SDS011;40578;53.178;5.846;2023-01-19T13:44:13;4.45;;;0.88;;
54679;SDS011;40578;53.178;5.846;2023-01-19T13:46:48;4.55;;;1.20;;
54679;SDS011;40578;53.178;5.846;2023-01-19T13:52:12;4.65;;;0.80;;
54679;SDS011;40578;53.178;5.846;2023-01-19T14:10:28;4.18;;;1.00;;
54679;SDS011;40578;53.178;5.846;2023-01-19T14:13:02;7.78;;;1.38;;
54679;SDS011;40578;53.178;5.846;2023-01-19T14:15:28;3.72;;;1.00;;
54679;SDS011;40578;53.178;5.846;2023-01-19T14:20:50;5.47;;;1.20;;
54679;SDS011;40578;53.178;5.846;2023-01-19T14:31:42;6.13;;;1.15;;
54679;SDS011;40578;53.178;5.846;2023-01-19T14:34:27;6.57;;;0.93;;
54679;SDS011;40578;53.178;5.846;2023-01-19T14:37:25;9.63;;;1.40;;
54679;SDS011;40578;53.178;5.846;2023-01-19T14:40:00;7.72;;;1.20;;
54679;SDS011;40578;53.178;5.846;2023-01-19T14:44:57;4.65;;;1.10;;
54679;SDS011;40578;53.178;5.846;2023-01-19T14:47:38;7.53;;;1.20;;
54679;SDS011;40578;53.178;5.846;2023-01-19T14:52:41;6.05;;;0.93;;
54679;SDS011;40578;53.178;5.846;2023-01-19T14:55:18;4.18;;;0.65;;
54679;SDS011;40578;53.178;5.846;2023-01-19T14:57:45;6.38;;;1.13;;
54679;SDS011;40578;53.178;5.846;2023-01-19T15:00:13;3.88;;;0.80;;
54679;SDS011;40578;53.178;5.846;2023-01-19T15:02:41;4.15;;;0.80;;
54679;SDS011;40578;53.178;5.846;2023-01-19T15:05:07;7.30;;;1.02;;
54679;SDS011;40578;53.178;5.846;2023-01-19T15:07:33;4.05;;;0.88;;
54679;SDS011;40578;53.178;5.846;2023-01-19T15:10:01;6.07;;;1.10;;
54679;SDS011;40578;53.178;5.846;2023-01-19T15:14:53;3.17;;;0.93;;
54679;SDS011;40578;53.178;5.846;2023-01-19T15:17:19;3.60;;;0.90;;
54679;SDS011;40578;53.178;5.846;2023-01-19T15:20:05;5.40;;;1.13;;
54679;SDS011;40578;53.178;5.846;2023-01-19T15:22:35;4.63;;;0.95;;
54679;SDS011;40578;53.178;5.846;2023-01-19T15:25:01;5.93;;;0.73;;
54679;SDS011;40578;53.178;5.846;2023-01-19T15:27:26;4.60;;;0.97;;
54679;SDS011;40578;53.178;5.846;2023-01-19T15:29:52;4.23;;;1.00;;
54679;SDS011;40578;53.178;5.846;2023-01-19T15:32:18;3.83;;;1.10;;
54679;SDS011;40578;53.178;5.846;2023-01-19T15:34:44;6.45;;;1.15;;
54679;SDS011;40578;53.178;5.846;2023-01-19T15:37:10;8.40;;;1.00;;
54679;SDS011;40578;53.178;5.846;2023-01-19T15:39:35;8.47;;;1.23;;
54679;SDS011;40578;53.178;5.846;2023-01-19T15:42:01;5.63;;;1.00;;
54679;SDS011;40578;53.178;5.846;2023-01-19T15:44:27;6.50;;;1.03;;
54679;SDS011;40578;53.178;5.846;2023-01-19T15:46:53;8.73;;;1.35;;
54679;SDS011;40578;53.178;5.846;2023-01-19T15:49:18;8.10;;;1.47;;
54679;SDS011;40578;53.178;5.846;2023-01-19T15:51:44;9.17;;;1.40;;
54679;SDS011;40578;53.178;5.846;2023-01-19T15:54:12;3.30;;;1.10;;
54679;SDS011;40578;53.178;5.846;2023-01-19T15:56:39;3.67;;;0.90;;
54679;SDS011;40578;53.178;5.846;2023-01-19T15:59:06;3.22;;;0.98;;
54679;SDS011;40578;53.178;5.846;2023-01-19T16:01:32;8.43;;;1.77;;
54679;SDS011;40578;53.178;5.846;2023-01-19T16:06:25;5.18;;;1.25;;
54679;SDS011;40578;53.178;5.846;2023-01-19T16:08:51;6.23;;;1.00;;
54679;SDS011;40578;53.178;5.846;2023-01-19T16:11:24;4.38;;;1.27;;
54679;SDS011;40578;53.178;5.846;2023-01-19T16:13:50;3.67;;;0.80;;
54679;SDS011;40578;53.178;5.846;2023-01-19T16:16:17;2.80;;;0.85;;
54679;SDS011;40578;53.178;5.846;2023-01-19T16:18:44;7.18;;;0.93;;
54679;SDS011;40578;53.178;5.846;2023-01-19T16:21:10;5.63;;;0.90;;
54679;SDS011;40578;53.178;5.846;2023-01-19T16:23:36;5.07;;;1.10;;
54679;SDS011;40578;53.178;5.846;2023-01-19T16:26:03;5.93;;;1.20;;
54679;SDS011;40578;53.178;5.846;2023-01-19T16:28:34;5.82;;;1.30;;
54679;SDS011;40578;53.178;5.846;2023-01-19T16:31:01;7.25;;;1.65;;
54679;SDS011;40578;53.178;5.846;2023-01-19T16:33:27;11.93;;;2.00;;
54679;SDS011;40578;53.178;5.846;2023-01-19T16:35:53;6.73;;;1.70;;
54679;SDS011;40578;53.178;5.846;2023-01-19T16:38:18;5.90;;;1.50;;
54679;SDS011;40578;53.178;5.846;2023-01-19T16:40:46;7.47;;;1.90;;
54679;SDS011;40578;53.178;5.846;2023-01-19T16:43:12;6.13;;;1.63;;
54679;SDS011;40578;53.178;5.846;2023-01-19T16:48:19;7.00;;;1.45;;
54679;SDS011;40578;53.178;5.846;2023-01-19T16:50:53;5.20;;;1.60;;
54679;SDS011;40578;53.178;5.846;2023-01-19T16:53:27;8.57;;;2.38;;
54679;SDS011;40578;53.178;5.846;2023-01-19T16:55:53;12.13;;;2.10;;
54679;SDS011;40578;53.178;5.846;2023-01-19T16:58:19;9.73;;;2.00;;
54679;SDS011;40578;53.178;5.846;2023-01-19T17:00:45;5.07;;;1.67;;
54679;SDS011;40578;53.178;5.846;2023-01-19T17:03:10;3.60;;;1.50;;
54679;SDS011;40578;53.178;5.846;2023-01-19T17:05:36;7.67;;;1.27;;
54679;SDS011;40578;53.178;5.846;2023-01-19T17:08:02;5.27;;;1.30;;
54679;SDS011;40578;53.178;5.846;2023-01-19T17:10:27;8.93;;;1.60;;
54679;SDS011;40578;53.178;5.846;2023-01-19T17:12:53;4.27;;;1.33;;
54679;SDS011;40578;53.178;5.846;2023-01-19T17:15:19;4.13;;;1.30;;